createdAt,value
2018-03-23T00:01:08.885Z,8.95
2018-03-23T00:03:35.637Z,11.52
2018-03-23T00:06:03.467Z,10.18
2018-03-23T00:08:30.218Z,8.90
2018-03-23T00:10:57.080Z,8.52
2018-03-23T00:13:23.883Z,9.32
2018-03-23T00:15:52.399Z,10.05
2018-03-23T00:18:19.923Z,10.05
2018-03-23T00:20:48.792Z,8.73
2018-03-23T00:23:15.673Z,10.23
2018-03-23T00:25:44.081Z,10.93
2018-03-23T00:28:10.956Z,8.45
2018-03-23T00:30:37.809Z,7.12
2018-03-23T00:33:04.601Z,6.95
2018-03-23T00:35:32.282Z,6.57
2018-03-23T00:37:59.555Z,7.40
2018-03-23T00:40:26.503Z,8.35
2018-03-23T00:42:54.280Z,6.95
2018-03-23T00:45:21.072Z,7.07
2018-03-23T00:47:49.485Z,5.93
2018-03-23T00:50:16.283Z,5.95
2018-03-23T00:52:43.109Z,6.75
2018-03-23T00:55:10.725Z,7.10
2018-03-23T00:57:38.854Z,8.32
2018-03-23T01:00:05.623Z,5.87
2018-03-23T01:02:32.405Z,8.93
2018-03-23T01:04:59.177Z,8.27
2018-03-23T01:07:30.491Z,7.78
2018-03-23T01:09:57.338Z,8.68
2018-03-23T01:12:24.757Z,8.02
2018-03-23T01:14:51.555Z,8.73
2018-03-23T01:17:18.440Z,7.43
2018-03-23T01:19:45.323Z,7.95
2018-03-23T01:22:15.173Z,7.75
2018-03-23T01:24:41.999Z,10.23
2018-03-23T01:27:12.870Z,7.60
2018-03-23T01:29:40.652Z,8.60
2018-03-23T01:32:07.530Z,8.55
2018-03-23T01:34:34.418Z,7.50
2018-03-23T01:37:01.318Z,8.43
2018-03-23T01:39:28.317Z,8.90
2018-03-23T01:41:55.242Z,8.13
2018-03-23T01:44:22.292Z,7.55
2018-03-23T01:46:49.178Z,7.40
2018-03-23T01:49:16.087Z,7.72
2018-03-23T01:51:42.940Z,7.37
2018-03-23T01:54:10.792Z,10.80
2018-03-23T01:56:37.602Z,8.60
2018-03-23T01:59:04.986Z,7.80
2018-03-23T02:01:32.428Z,9.75
2018-03-23T02:03:59.952Z,9.13
2018-03-23T02:06:26.854Z,7.97
2018-03-23T02:08:56.393Z,7.82
2018-03-23T02:11:24.085Z,8.98
2018-03-23T02:13:51.455Z,9.88
2018-03-23T02:16:19.434Z,10.15
2018-03-23T02:18:46.776Z,10.63
2018-03-23T02:21:14.377Z,8.52
2018-03-23T02:23:41.326Z,12.55
2018-03-23T02:26:08.449Z,14.25
2018-03-23T02:28:35.233Z,8.00
2018-03-23T02:31:02.767Z,8.27
2018-03-23T02:33:29.571Z,10.82
2018-03-23T02:35:57.018Z,12.63
2018-03-23T02:38:23.949Z,13.43
2018-03-23T02:40:50.852Z,10.63
2018-03-23T02:43:21.358Z,11.65
2018-03-23T02:45:48.204Z,16.12
2018-03-23T02:48:15.013Z,14.25
2018-03-23T02:50:41.860Z,15.73
2018-03-23T02:53:08.780Z,10.90
2018-03-23T02:55:43.829Z,16.10
2018-03-23T02:58:10.766Z,17.85
2018-03-23T03:00:37.675Z,16.95
2018-03-23T03:03:04.507Z,15.40
2018-03-23T03:05:31.965Z,18.58
2018-03-23T03:07:59.459Z,20.33
2018-03-23T03:10:27.490Z,19.80
2018-03-23T03:12:54.514Z,26.48
2018-03-23T03:15:25.854Z,17.37
2018-03-23T03:17:52.727Z,26.92
2018-03-23T03:20:20.092Z,27.70
2018-03-23T03:22:46.886Z,23.92
2018-03-23T03:25:14.583Z,24.90
2018-03-23T03:27:42.036Z,22.58
2018-03-23T03:30:08.814Z,21.42
2018-03-23T03:32:35.996Z,26.75
2018-03-23T03:35:02.874Z,26.70
2018-03-23T03:37:29.707Z,33.22
2018-03-23T03:39:57.668Z,29.40
2018-03-23T03:42:24.537Z,28.98
2018-03-23T03:44:51.457Z,26.55
2018-03-23T03:47:18.448Z,27.65
2018-03-23T03:49:45.288Z,31.08
2018-03-23T03:52:12.995Z,30.70
2018-03-23T03:54:40.588Z,28.75
2018-03-23T03:57:08.403Z,27.05
2018-03-23T03:59:35.359Z,26.42
2018-03-23T04:02:03.045Z,29.30
2018-03-23T04:04:31.258Z,28.65
2018-03-23T04:06:58.295Z,28.38
2018-03-23T04:09:29.205Z,28.98
2018-03-23T04:11:55.958Z,28.75
2018-03-23T04:14:23.574Z,25.42
2018-03-23T04:16:51.037Z,29.55
2018-03-23T04:19:17.942Z,28.42
2018-03-23T04:21:51.161Z,27.90
2018-03-23T04:24:17.875Z,33.75
2018-03-23T04:26:48.534Z,30.65
2018-03-23T04:29:15.323Z,26.73
2018-03-23T04:31:42.234Z,30.95
2018-03-23T04:34:09.106Z,27.98
2018-03-23T04:36:37.012Z,28.35
2018-03-23T04:39:03.904Z,34.53
2018-03-23T04:41:30.887Z,25.98
2018-03-23T04:43:58.454Z,24.58
2018-03-23T04:46:25.348Z,26.62
2018-03-23T04:48:52.194Z,25.92
2018-03-23T04:51:19.063Z,27.35
2018-03-23T04:53:46.900Z,28.25
2018-03-23T04:56:17.771Z,28.70
2018-03-23T04:58:44.521Z,32.05
2018-03-23T05:01:15.662Z,26.73
2018-03-23T05:03:43.404Z,26.77
2018-03-23T05:06:10.148Z,27.08
2018-03-23T05:08:37.377Z,34.95
2018-03-23T05:11:04.240Z,26.27
2018-03-23T05:13:33.279Z,28.60
2018-03-23T05:16:01.569Z,26.42
2018-03-23T05:18:29.312Z,30.48
2018-03-23T05:20:58.526Z,28.98
2018-03-23T05:23:29.728Z,24.63
2018-03-23T05:25:57.533Z,27.20
2018-03-23T05:28:29.048Z,31.73
2018-03-23T05:30:55.909Z,27.33
2018-03-23T05:33:22.969Z,30.23
2018-03-23T05:35:49.843Z,28.52
2018-03-23T05:38:16.618Z,28.25
2018-03-23T05:40:43.460Z,30.00
2018-03-23T05:43:10.341Z,32.35
2018-03-23T05:45:38.056Z,33.58
2018-03-23T05:48:04.816Z,36.33
2018-03-23T05:50:31.976Z,33.97
2018-03-23T05:52:58.925Z,34.85
2018-03-23T05:55:29.836Z,33.63
2018-03-23T05:58:00.735Z,31.85
2018-03-23T06:00:27.931Z,37.22
2018-03-23T06:02:55.179Z,38.88
2018-03-23T06:05:22.315Z,34.40
2018-03-23T06:07:49.410Z,38.90
2018-03-23T06:10:18.063Z,37.88
2018-03-23T06:12:45.116Z,39.83
2018-03-23T06:15:19.923Z,34.38
2018-03-23T06:17:46.716Z,31.92
2018-03-23T06:20:13.438Z,37.55
2018-03-23T06:22:40.323Z,43.53
2018-03-23T06:25:07.388Z,47.10
2018-03-23T06:27:38.235Z,37.90
2018-03-23T06:30:04.960Z,35.15
2018-03-23T06:32:32.466Z,36.75
2018-03-23T06:34:59.445Z,47.35
2018-03-23T06:37:26.942Z,39.50
2018-03-23T06:39:53.981Z,38.97
2018-03-23T06:42:21.457Z,36.58
2018-03-23T06:44:49.174Z,34.45
2018-03-23T06:47:15.981Z,40.70
2018-03-23T06:49:51.305Z,44.42
2018-03-23T06:52:19.098Z,37.55
2018-03-23T06:54:46.654Z,37.05
2018-03-23T06:57:18.109Z,33.40
2018-03-23T06:59:45.134Z,29.83
2018-03-23T07:02:12.105Z,33.70
2018-03-23T07:04:39.138Z,36.35
2018-03-23T07:07:05.953Z,30.73
2018-03-23T07:09:33.551Z,32.00
2018-03-23T07:12:00.323Z,34.75
2018-03-23T07:14:27.146Z,34.78
2018-03-23T07:16:53.978Z,37.95
2018-03-23T07:19:20.696Z,34.53
2018-03-23T07:21:47.465Z,30.77
2018-03-23T07:24:14.421Z,33.05
2018-03-23T07:26:41.571Z,40.58
2018-03-23T07:29:08.626Z,41.67
2018-03-23T07:31:36.149Z,43.97
2018-03-23T07:34:03.104Z,54.20
2018-03-23T07:36:29.977Z,54.35
2018-03-23T07:38:56.975Z,49.67
2018-03-23T07:41:23.980Z,60.25
2018-03-23T07:43:50.766Z,57.22
2018-03-23T07:46:17.661Z,48.65
2018-03-23T07:48:44.313Z,56.13
2018-03-23T07:51:10.969Z,77.22
2018-03-23T07:53:37.605Z,72.20
2018-03-23T07:56:04.284Z,65.45
2018-03-23T07:58:30.954Z,91.10
2018-03-23T08:00:57.584Z,87.95
2018-03-23T08:03:24.224Z,65.50
2018-03-23T08:05:50.852Z,76.20
2018-03-23T08:08:17.501Z,65.07
2018-03-23T08:10:44.169Z,85.97
2018-03-23T08:13:10.850Z,92.85
2018-03-23T08:15:37.484Z,71.68
2018-03-23T08:18:04.839Z,69.65
2018-03-23T08:20:31.468Z,92.97
2018-03-23T08:22:58.105Z,86.15
2018-03-23T08:25:24.870Z,74.43
2018-03-23T08:27:51.518Z,94.03
2018-03-23T08:30:18.194Z,66.95
2018-03-23T08:32:44.868Z,70.07
2018-03-23T08:35:11.525Z,57.85
2018-03-23T08:37:38.173Z,56.78
2018-03-23T08:40:04.952Z,55.50
2018-03-23T08:42:31.600Z,60.70
2018-03-23T08:44:58.250Z,60.47
2018-03-23T08:47:24.880Z,53.40
2018-03-23T08:49:52.381Z,49.90
2018-03-23T08:52:19.004Z,45.22
2018-03-23T08:54:45.671Z,45.85
2018-03-23T08:57:12.288Z,38.85
2018-03-23T08:59:38.964Z,39.42
2018-03-23T09:02:05.649Z,49.58
2018-03-23T09:04:32.235Z,44.47
2018-03-23T09:06:58.868Z,43.50
2018-03-23T09:09:25.572Z,36.80
2018-03-23T09:11:52.432Z,37.42
2018-03-23T09:14:19.191Z,39.58
2018-03-23T09:16:46.021Z,42.38
2018-03-23T09:19:12.821Z,31.33
2018-03-23T09:21:39.601Z,38.80
2018-03-23T09:24:06.314Z,32.17
2018-03-23T09:26:33.150Z,44.97
2018-03-23T09:29:00.136Z,49.40
2018-03-23T09:31:27.052Z,57.78
2018-03-23T09:33:54.131Z,56.67
2018-03-23T09:36:20.898Z,64.43
2018-03-23T09:38:47.686Z,57.03
2018-03-23T09:41:14.487Z,68.47
2018-03-23T09:43:41.255Z,63.33
2018-03-23T09:46:08.140Z,73.07
2018-03-23T09:48:35.037Z,80.28
2018-03-23T09:51:01.941Z,69.57
2018-03-23T09:53:28.744Z,77.15
2018-03-23T09:55:55.422Z,69.18
2018-03-23T09:58:23.101Z,78.87
2018-03-23T10:00:51.279Z,86.97
2018-03-23T10:03:18.057Z,83.75
2018-03-23T10:05:44.902Z,84.85
2018-03-23T10:08:11.657Z,85.15
2018-03-23T10:10:38.404Z,73.15
2018-03-23T10:13:05.138Z,71.10
2018-03-23T10:15:32.137Z,72.80
2018-03-23T10:17:59.011Z,78.22
2018-03-23T10:20:25.968Z,71.43
2018-03-23T10:22:52.646Z,69.50
2018-03-23T10:25:19.445Z,67.53
2018-03-23T10:27:46.828Z,66.37
2018-03-23T10:30:13.694Z,64.00
2018-03-23T10:32:40.459Z,59.45
2018-03-23T10:35:07.281Z,63.40
2018-03-23T10:37:34.603Z,61.65
2018-03-23T10:40:01.625Z,66.87
2018-03-23T10:42:28.424Z,70.43
2018-03-23T10:44:55.149Z,72.95
2018-03-23T10:47:24.302Z,78.53
2018-03-23T10:49:51.497Z,68.80
2018-03-23T10:52:18.535Z,71.60
2018-03-23T10:54:46.571Z,73.60
2018-03-23T10:57:13.469Z,71.30
2018-03-23T10:59:40.314Z,71.37
2018-03-23T11:02:07.348Z,66.85
2018-03-23T11:04:34.641Z,70.18
2018-03-23T11:07:01.467Z,60.12
2018-03-23T11:09:28.544Z,63.75
2018-03-23T11:11:56.151Z,60.00
2018-03-23T11:14:27.631Z,61.25
2018-03-23T11:16:58.422Z,65.78
2018-03-23T11:19:25.175Z,66.47
2018-03-23T11:21:52.110Z,67.47
2018-03-23T11:24:19.102Z,67.70
2018-03-23T11:26:46.288Z,64.65
2018-03-23T11:29:13.241Z,63.60
2018-03-23T11:31:40.375Z,55.95
2018-03-23T11:34:07.584Z,56.42
2018-03-23T11:36:34.528Z,54.42
2018-03-23T11:39:02.220Z,55.80
2018-03-23T11:41:31.278Z,43.30
2018-03-23T11:43:58.248Z,48.35
2018-03-23T11:46:25.617Z,41.50
2018-03-23T11:48:52.524Z,42.50
2018-03-23T11:51:19.676Z,44.78
2018-03-23T11:53:46.824Z,41.80
2018-03-23T11:56:13.746Z,43.22
2018-03-23T11:58:40.620Z,38.58
2018-03-23T12:01:08.242Z,45.20
2018-03-23T12:03:35.130Z,38.83
2018-03-23T12:06:02.575Z,33.92
2018-03-23T12:08:29.509Z,34.38
2018-03-23T12:10:56.506Z,34.35
2018-03-23T12:13:23.314Z,36.20
2018-03-23T12:15:51.136Z,29.48
2018-03-23T12:18:18.000Z,28.20
2018-03-23T12:20:46.697Z,27.92
2018-03-23T12:23:13.758Z,23.67
2018-03-23T12:25:40.775Z,28.15
2018-03-23T12:28:07.843Z,28.08
2018-03-23T12:30:35.207Z,28.75
2018-03-23T12:33:02.479Z,29.00
2018-03-23T12:35:29.714Z,30.17
2018-03-23T12:37:58.540Z,29.30
2018-03-23T12:40:26.167Z,32.72
2018-03-23T12:42:58.024Z,32.70
2018-03-23T12:45:25.210Z,33.45
2018-03-23T12:47:52.979Z,29.67
2018-03-23T12:50:19.762Z,27.98
2018-03-23T12:52:46.632Z,28.80
2018-03-23T12:55:13.635Z,25.88
2018-03-23T12:57:40.594Z,26.25
2018-03-23T13:00:07.657Z,26.08
2018-03-23T13:02:34.363Z,26.98
2018-03-23T13:05:01.334Z,26.30
2018-03-23T13:07:28.142Z,28.65
2018-03-23T13:09:55.272Z,25.17
2018-03-23T13:12:22.078Z,24.90
2018-03-23T13:14:48.899Z,26.62
2018-03-23T13:17:15.705Z,25.98
2018-03-23T13:19:42.596Z,25.55
2018-03-23T13:22:09.961Z,32.20
2018-03-23T13:24:36.717Z,27.35
2018-03-23T13:27:03.479Z,25.50
2018-03-23T13:29:31.292Z,23.83
2018-03-23T13:31:58.134Z,25.73
2018-03-23T13:34:25.125Z,27.30
2018-03-23T13:36:51.942Z,27.37
2018-03-23T13:39:19.071Z,28.75
2018-03-23T13:41:45.897Z,24.48
2018-03-23T13:44:12.630Z,26.45
2018-03-23T13:46:39.334Z,23.30
2018-03-23T13:49:06.083Z,22.30
2018-03-23T13:51:32.857Z,26.30
2018-03-23T13:53:59.531Z,23.77
2018-03-23T13:56:26.716Z,28.33
2018-03-23T13:58:59.425Z,25.25
2018-03-23T14:01:32.521Z,23.85
2018-03-23T14:03:59.452Z,22.42
2018-03-23T14:06:26.238Z,22.33
2018-03-23T14:08:52.902Z,28.17
2018-03-23T14:11:19.804Z,24.80
2018-03-23T14:13:46.736Z,24.77
2018-03-23T14:16:13.600Z,21.92
2018-03-23T14:18:40.707Z,21.75
2018-03-23T14:21:07.537Z,23.90
2018-03-23T14:23:34.412Z,23.98
2018-03-23T14:26:01.273Z,20.90
2018-03-23T14:28:28.089Z,18.55
2018-03-23T14:30:54.780Z,20.50
2018-03-23T14:33:21.525Z,20.20
2018-03-23T14:35:48.500Z,20.77
2018-03-23T14:38:15.491Z,24.70
2018-03-23T14:40:42.430Z,20.83
2018-03-23T14:43:09.501Z,19.48
2018-03-23T14:45:36.267Z,20.30
2018-03-23T14:48:03.110Z,18.55
2018-03-23T14:50:30.147Z,18.48
2018-03-23T14:52:57.096Z,18.83
2018-03-23T14:55:24.000Z,21.60
2018-03-23T14:57:50.877Z,17.87
2018-03-23T15:00:17.665Z,19.25
2018-03-23T15:02:44.473Z,19.15
2018-03-23T15:05:11.966Z,17.65
2018-03-23T15:07:38.986Z,16.05
2018-03-23T15:10:05.934Z,17.50
2018-03-23T15:12:32.855Z,18.10
2018-03-23T15:14:59.915Z,17.35
2018-03-23T15:17:26.938Z,18.58
2018-03-23T15:19:53.782Z,18.62
2018-03-23T15:22:20.874Z,22.33
2018-03-23T15:24:47.946Z,18.35
2018-03-23T15:27:14.994Z,15.57
2018-03-23T15:29:42.032Z,17.48
2018-03-23T15:32:08.746Z,17.08
2018-03-23T15:34:35.709Z,15.15
2018-03-23T15:37:02.851Z,16.58
2018-03-23T15:39:29.701Z,17.85
2018-03-23T15:41:57.437Z,17.02
2018-03-23T15:44:24.869Z,18.85
2018-03-23T15:46:51.853Z,16.12
2018-03-23T15:49:18.616Z,16.40
2018-03-23T15:51:45.704Z,19.70
2018-03-23T15:54:12.612Z,19.85
2018-03-23T15:56:39.697Z,17.23
2018-03-23T15:59:06.582Z,19.50
2018-03-23T16:01:33.538Z,16.60
2018-03-23T16:04:00.476Z,16.08
2018-03-23T16:06:27.649Z,16.15
2018-03-23T16:08:54.531Z,16.48
2018-03-23T16:11:21.445Z,15.13
2018-03-23T16:13:48.402Z,16.52
2018-03-23T16:16:15.597Z,12.30
2018-03-23T16:18:42.466Z,16.45
2018-03-23T16:21:09.373Z,16.08
2018-03-23T16:23:36.482Z,18.50
2018-03-23T16:26:03.285Z,21.10
2018-03-23T16:28:30.080Z,18.00
2018-03-23T16:30:56.991Z,19.87
2018-03-23T16:33:24.050Z,20.52
2018-03-23T16:35:50.822Z,21.00
2018-03-23T16:38:17.652Z,18.65
2018-03-23T16:40:44.545Z,18.23
2018-03-23T16:43:12.018Z,21.05
2018-03-23T16:45:39.057Z,24.25
2018-03-23T16:48:06.513Z,18.12
2018-03-23T16:50:34.249Z,19.65
2018-03-23T16:53:01.246Z,18.42
2018-03-23T16:55:27.972Z,22.83
2018-03-23T16:57:54.989Z,19.92
2018-03-23T17:00:21.958Z,23.48
2018-03-23T17:02:48.915Z,20.95
2018-03-23T17:05:15.662Z,23.80
2018-03-23T17:07:42.627Z,20.45
2018-03-23T17:10:09.672Z,18.02
2018-03-23T17:12:36.653Z,22.62
2018-03-23T17:15:03.605Z,21.85
2018-03-23T17:17:30.385Z,24.75
2018-03-23T17:19:57.365Z,21.35
2018-03-23T17:22:24.134Z,24.55
2018-03-23T17:24:51.251Z,25.27
2018-03-23T17:27:18.036Z,24.33
2018-03-23T17:29:44.859Z,23.15
2018-03-23T17:32:11.668Z,24.33
2018-03-23T17:34:38.707Z,27.67
2018-03-23T17:37:05.611Z,28.48
2018-03-23T17:39:32.495Z,29.10
2018-03-23T17:41:59.381Z,25.77
2018-03-23T17:44:27.052Z,30.00
2018-03-23T17:46:53.862Z,30.15
2018-03-23T17:49:20.703Z,30.67
2018-03-23T17:51:48.320Z,29.02
2018-03-23T17:54:15.165Z,33.47
2018-03-23T17:56:42.087Z,28.62
2018-03-23T17:59:09.169Z,30.20
2018-03-23T18:01:36.000Z,30.23
2018-03-23T18:04:02.849Z,29.75
2018-03-23T18:06:30.101Z,31.75
2018-03-23T18:08:58.075Z,32.67
2018-03-23T18:11:25.083Z,33.35
2018-03-23T18:13:51.977Z,34.85
2018-03-23T18:16:18.960Z,28.80
2018-03-23T18:18:45.719Z,31.30
2018-03-23T18:21:12.711Z,27.42
2018-03-23T18:23:39.588Z,30.77
2018-03-23T18:26:12.574Z,31.62
2018-03-23T18:28:39.388Z,27.90
2018-03-23T18:31:06.980Z,33.05
2018-03-23T18:33:34.641Z,30.35
2018-03-23T18:36:01.865Z,29.52
2018-03-23T18:38:29.355Z,28.90
2018-03-23T18:40:56.420Z,24.87
2018-03-23T18:43:23.295Z,31.73
2018-03-23T18:45:50.915Z,28.62
2018-03-23T18:48:17.881Z,26.30
2018-03-23T18:50:45.824Z,26.70
2018-03-23T18:53:12.629Z,33.28
2018-03-23T18:55:39.504Z,29.63
2018-03-23T18:58:06.468Z,31.15
2018-03-23T19:00:33.310Z,24.63
2018-03-23T19:02:59.997Z,26.30
2018-03-23T19:05:27.422Z,29.12
2018-03-23T19:07:55.336Z,28.95
2018-03-23T19:10:22.359Z,28.60
2018-03-23T19:12:53.159Z,30.40
2018-03-23T19:15:21.524Z,31.35
2018-03-23T19:17:50.230Z,34.15
2018-03-23T19:20:17.120Z,29.48
2018-03-23T19:22:44.328Z,27.23
2018-03-23T19:25:11.447Z,29.75
2018-03-23T19:27:42.515Z,30.25
2018-03-23T19:30:09.718Z,28.17
2018-03-23T19:32:37.306Z,29.85
2018-03-23T19:35:04.942Z,32.58
2018-03-23T19:37:33.136Z,29.50
2018-03-23T19:40:00.164Z,28.90
2018-03-23T19:42:27.676Z,28.17
2018-03-23T19:44:55.377Z,27.58
2018-03-23T19:47:23.059Z,35.88
2018-03-23T19:49:50.036Z,32.10
2018-03-23T19:52:17.409Z,35.63
2018-03-23T19:54:48.786Z,28.80
2018-03-23T19:57:20.878Z,30.42
2018-03-23T19:59:47.974Z,32.30
2018-03-23T20:02:15.157Z,30.35
2018-03-23T20:04:42.222Z,31.90
2018-03-23T20:07:09.547Z,29.55
2018-03-23T20:09:38.108Z,30.15
2018-03-23T20:12:08.370Z,32.00
2018-03-23T20:14:36.002Z,35.72
2018-03-23T20:17:17.711Z,31.83
2018-03-23T20:22:31.199Z,32.53
2018-03-23T20:24:58.055Z,35.55
2018-03-23T20:27:31.502Z,32.58
2018-03-23T20:29:59.075Z,35.35
2018-03-23T20:32:30.999Z,38.83
2018-03-23T20:34:58.348Z,38.63
2018-03-23T20:37:25.380Z,32.38
2018-03-23T20:39:52.503Z,33.58
2018-03-23T20:42:19.406Z,31.42
2018-03-23T20:44:47.271Z,33.92
2018-03-23T20:47:14.289Z,34.75
2018-03-23T20:49:41.921Z,28.73
2018-03-23T20:52:08.850Z,30.88
2018-03-23T20:54:35.879Z,29.55
2018-03-23T20:57:03.844Z,31.67
2018-03-23T20:59:30.704Z,30.98
2018-03-23T21:01:57.752Z,30.70
2018-03-23T21:04:24.862Z,29.83
2018-03-23T21:06:51.905Z,27.90
2018-03-23T21:09:19.169Z,29.10
2018-03-23T21:11:46.476Z,26.83
2018-03-23T21:14:14.324Z,27.48
2018-03-23T21:16:45.189Z,27.48
2018-03-23T21:19:12.148Z,24.95
2018-03-23T21:21:40.351Z,23.48
2018-03-23T21:24:07.166Z,23.30
2018-03-23T21:26:33.978Z,26.23
2018-03-23T21:29:01.221Z,28.60
2018-03-23T21:31:31.907Z,26.45
2018-03-23T21:33:58.712Z,25.50
2018-03-23T21:36:25.783Z,22.98
2018-03-23T21:38:53.056Z,22.77
2018-03-23T21:41:19.955Z,24.75
2018-03-23T21:43:47.191Z,24.35
2018-03-23T21:46:18.450Z,26.23
2018-03-23T21:48:46.101Z,22.48
2018-03-23T21:51:13.027Z,24.30
2018-03-23T21:53:40.886Z,22.60
2018-03-23T21:56:08.104Z,26.83
2018-03-23T21:58:35.354Z,24.10
2018-03-23T22:01:02.369Z,24.30
2018-03-23T22:03:29.582Z,22.42
2018-03-23T22:05:56.645Z,20.58
2018-03-23T22:08:28.365Z,22.40
2018-03-23T22:10:57.539Z,22.77
2018-03-23T22:13:24.719Z,22.37
2018-03-23T22:15:52.514Z,21.50
2018-03-23T22:18:19.326Z,21.40
2018-03-23T22:20:46.307Z,20.00
2018-03-23T22:23:14.258Z,19.95
2018-03-23T22:25:41.621Z,24.23
2018-03-23T22:28:09.209Z,20.67
2018-03-23T22:30:36.521Z,20.35
2018-03-23T22:33:03.874Z,24.83
2018-03-23T22:35:30.800Z,23.73
2018-03-23T22:37:57.515Z,22.73
2018-03-23T22:40:30.401Z,24.75
2018-03-23T22:43:01.199Z,26.12
2018-03-23T22:45:29.747Z,21.52
2018-03-23T22:47:56.646Z,20.37
2018-03-23T22:50:24.686Z,20.77
2018-03-23T22:52:51.428Z,23.87
2018-03-23T22:55:20.894Z,26.27
2018-03-23T22:57:52.015Z,22.60
2018-03-23T23:00:18.689Z,24.25
2018-03-23T23:02:46.853Z,21.45
2018-03-23T23:05:14.565Z,22.00
2018-03-23T23:07:41.241Z,26.15
2018-03-23T23:10:07.956Z,21.58
2018-03-23T23:12:38.469Z,20.45
2018-03-23T23:15:05.482Z,19.42
2018-03-23T23:17:38.537Z,23.08
2018-03-23T23:20:09.418Z,18.67
2018-03-23T23:22:36.588Z,24.10
2018-03-23T23:25:03.315Z,24.67
2018-03-23T23:27:30.206Z,21.75
2018-03-23T23:29:56.831Z,20.15
2018-03-23T23:32:23.731Z,18.10
2018-03-23T23:34:50.403Z,18.25
2018-03-23T23:37:17.564Z,17.17
2018-03-23T23:39:45.018Z,18.15
2018-03-23T23:42:23.937Z,18.65
2018-03-23T23:44:50.611Z,18.37
2018-03-23T23:47:17.352Z,18.50
2018-03-23T23:49:44.671Z,20.10
2018-03-23T23:52:11.377Z,18.25
2018-03-23T23:54:38.802Z,16.17
2018-03-23T23:57:05.877Z,20.17
2018-03-23T23:59:32.610Z,19.20
